createdAt,value
2018-07-03T00:00:54.517Z,58.54
2018-07-03T00:03:24.723Z,59.09
2018-07-03T00:05:53.983Z,59.77
2018-07-03T00:08:23.535Z,60.34
2018-07-03T00:10:52.694Z,60.04
2018-07-03T00:13:21.778Z,60.74
2018-07-03T00:15:50.866Z,60.79
2018-07-03T00:18:19.968Z,61.61
2018-07-03T00:20:49.042Z,62.02
2018-07-03T00:23:18.553Z,62.70
2018-07-03T00:25:48.046Z,62.74
2018-07-03T00:28:17.143Z,63.86
2018-07-03T00:30:46.262Z,64.05
2018-07-03T00:33:15.427Z,62.99
2018-07-03T00:35:47.584Z,63.93
2018-07-03T00:38:16.714Z,64.36
2018-07-03T00:40:45.895Z,64.45
2018-07-03T00:43:15.068Z,64.37
2018-07-03T00:45:44.199Z,64.40
2018-07-03T00:48:13.323Z,64.66
2018-07-03T00:50:42.231Z,64.23
2018-07-03T00:53:11.639Z,63.10
2018-07-03T00:55:40.782Z,63.87
2018-07-03T00:58:10.454Z,63.84
2018-07-03T01:00:40.424Z,62.32
2018-07-03T01:03:09.723Z,61.88
2018-07-03T01:05:39.073Z,61.73
2018-07-03T01:08:08.486Z,61.59
2018-07-03T01:10:37.715Z,61.61
2018-07-03T01:13:06.978Z,61.74
2018-07-03T01:15:36.082Z,62.54
2018-07-03T01:18:07.515Z,62.98
2018-07-03T01:20:36.619Z,62.65
2018-07-03T01:23:05.953Z,64.64
2018-07-03T01:25:35.139Z,63.96
2018-07-03T01:28:04.666Z,65.10
2018-07-03T01:30:33.811Z,65.55
2018-07-03T01:33:02.963Z,66.82
2018-07-03T01:35:32.103Z,67.76
2018-07-03T01:38:01.282Z,67.39
2018-07-03T01:40:30.723Z,67.22
2018-07-03T01:42:59.829Z,67.66
2018-07-03T01:45:28.950Z,68.30
2018-07-03T01:47:58.054Z,67.75
2018-07-03T01:50:27.150Z,67.87
2018-07-03T01:52:57.886Z,67.56
2018-07-03T01:55:27.010Z,68.08
2018-07-03T01:57:56.103Z,66.78
2018-07-03T02:00:25.195Z,68.82
2018-07-03T02:02:54.394Z,69.72
2018-07-03T02:05:24.018Z,68.76
2018-07-03T02:07:55.201Z,68.76
2018-07-03T02:10:25.182Z,69.05
2018-07-03T02:12:55.014Z,69.31
2018-07-03T02:15:24.635Z,69.88
2018-07-03T02:17:54.594Z,70.61
2018-07-03T02:20:23.802Z,70.74
2018-07-03T02:22:55.737Z,70.84
2018-07-03T02:25:24.862Z,70.66
2018-07-03T02:27:54.279Z,71.63
2018-07-03T02:30:23.428Z,71.82
2018-07-03T02:32:52.531Z,70.78
2018-07-03T02:35:21.659Z,71.52
2018-07-03T02:37:50.545Z,71.79
2018-07-03T02:40:19.663Z,72.52
2018-07-03T02:42:48.834Z,72.13
2018-07-03T02:45:17.947Z,72.56
2018-07-03T02:47:47.055Z,71.87
2018-07-03T02:50:16.218Z,72.02
2018-07-03T02:52:45.332Z,73.09
2018-07-03T02:55:14.439Z,72.98
2018-07-03T02:57:43.530Z,73.63
2018-07-03T03:00:12.662Z,72.30
2018-07-03T03:02:41.750Z,72.21
2018-07-03T03:05:10.862Z,72.51
2018-07-03T03:07:40.043Z,72.73
2018-07-03T03:10:09.953Z,71.94
2018-07-03T03:12:39.641Z,72.05
2018-07-03T03:15:11.017Z,73.56
2018-07-03T03:17:40.610Z,72.88
2018-07-03T03:20:09.758Z,72.98
2018-07-03T03:22:38.944Z,72.73
2018-07-03T03:25:08.062Z,73.72
2018-07-03T03:27:37.162Z,74.65
2018-07-03T03:30:06.287Z,74.13
2018-07-03T03:32:35.630Z,74.31
2018-07-03T03:35:04.790Z,74.59
2018-07-03T03:37:34.490Z,74.44
2018-07-03T03:40:03.603Z,74.26
2018-07-03T03:42:32.755Z,73.09
2018-07-03T03:45:02.550Z,73.54
2018-07-03T03:47:31.726Z,73.00
2018-07-03T03:50:00.826Z,72.93
2018-07-03T03:52:30.714Z,72.80
2018-07-03T03:54:59.847Z,71.84
2018-07-03T03:57:29.506Z,72.57
2018-07-03T03:59:58.707Z,72.23
2018-07-03T04:02:27.850Z,71.99
2018-07-03T04:04:56.962Z,72.80
2018-07-03T04:07:26.948Z,72.14
2018-07-03T04:09:56.056Z,70.87
2018-07-03T04:12:25.690Z,68.32
2018-07-03T04:14:55.138Z,66.30
2018-07-03T04:17:24.890Z,65.19
2018-07-03T04:19:53.999Z,63.92
2018-07-03T04:22:23.954Z,61.90
2018-07-03T04:24:53.038Z,60.89
2018-07-03T04:27:22.214Z,58.54
2018-07-03T04:29:51.391Z,56.24
2018-07-03T04:32:20.970Z,52.81
2018-07-03T04:34:50.147Z,51.26
2018-07-03T04:37:19.430Z,50.33
2018-07-03T04:39:48.542Z,50.53
2018-07-03T04:42:17.639Z,48.21
2018-07-03T04:44:46.537Z,45.43
2018-07-03T04:47:15.640Z,43.73
2018-07-03T04:49:44.770Z,43.57
2018-07-03T04:52:14.711Z,43.73
2018-07-03T04:54:43.856Z,42.73
2018-07-03T04:57:12.963Z,43.28
2018-07-03T04:59:42.122Z,43.37
2018-07-03T05:02:11.271Z,42.33
2018-07-03T05:04:40.970Z,42.06
2018-07-03T05:07:10.151Z,42.23
2018-07-03T05:09:39.246Z,41.64
2018-07-03T05:12:08.375Z,40.61
2018-07-03T05:14:37.490Z,40.25
2018-07-03T05:17:06.748Z,38.79
2018-07-03T05:19:36.443Z,38.10
2018-07-03T05:22:05.953Z,37.86
2018-07-03T05:24:35.492Z,36.60
2018-07-03T05:27:04.314Z,35.47
2018-07-03T05:29:33.658Z,37.12
2018-07-03T05:32:03.379Z,35.73
2018-07-03T05:34:33.966Z,34.88
2018-07-03T05:37:03.986Z,35.48
2018-07-03T05:39:33.301Z,36.07
2018-07-03T05:42:02.534Z,34.45
2018-07-03T05:44:31.777Z,34.08
2018-07-03T05:47:01.040Z,33.24
2018-07-03T05:49:30.474Z,33.12
2018-07-03T05:51:59.959Z,33.71
2018-07-03T05:54:30.059Z,34.64
2018-07-03T05:56:58.922Z,33.39
2018-07-03T05:59:28.482Z,32.23
2018-07-03T06:01:58.394Z,28.76
2018-07-03T06:04:27.493Z,27.61
2018-07-03T06:06:56.630Z,26.58
2018-07-03T06:09:25.724Z,27.03
2018-07-03T06:11:54.818Z,25.78
2018-07-03T06:14:23.913Z,26.39
2018-07-03T06:16:55.282Z,27.40
2018-07-03T06:19:25.723Z,27.33
2018-07-03T06:21:56.386Z,25.97
2018-07-03T06:24:26.296Z,27.14
2018-07-03T06:26:55.857Z,28.30
2018-07-03T06:29:25.818Z,27.08
2018-07-03T06:31:54.954Z,27.06
2018-07-03T06:34:24.945Z,26.32
2018-07-03T06:36:53.713Z,25.47
2018-07-03T06:39:22.797Z,25.39
2018-07-03T06:41:52.146Z,24.68
2018-07-03T06:44:21.230Z,25.35
2018-07-03T06:46:51.115Z,25.47
2018-07-03T06:49:20.208Z,24.84
2018-07-03T06:51:49.389Z,24.03
2018-07-03T06:54:18.438Z,24.44
2018-07-03T06:56:48.531Z,23.99
2018-07-03T06:59:18.371Z,23.45
2018-07-03T07:02:18.903Z,22.10
2018-07-03T07:04:48.433Z,21.48
2018-07-03T07:07:18.385Z,22.09
2018-07-03T07:09:47.515Z,22.08
2018-07-03T07:12:16.610Z,21.46
2018-07-03T07:14:45.695Z,20.62
2018-07-03T07:17:14.828Z,21.52
2018-07-03T07:19:44.586Z,21.31
2018-07-03T07:22:13.670Z,19.87
2018-07-03T07:24:42.858Z,19.69
2018-07-03T07:27:12.451Z,19.21
2018-07-03T07:29:41.856Z,21.05
2018-07-03T07:32:11.439Z,20.46
2018-07-03T07:34:40.774Z,21.05
2018-07-03T07:37:09.890Z,21.82
2018-07-03T07:39:39.030Z,20.84
2018-07-03T07:42:08.130Z,21.04
2018-07-03T07:44:37.226Z,20.48
2018-07-03T07:47:06.511Z,21.90
2018-07-03T07:49:35.618Z,20.02
2018-07-03T07:52:06.234Z,18.69
2018-07-03T07:54:35.341Z,18.16
2018-07-03T07:57:04.467Z,17.88
2018-07-03T07:59:33.546Z,18.92
2018-07-03T08:02:02.698Z,17.31
2018-07-03T08:04:31.855Z,16.96
2018-07-03T08:07:01.719Z,17.11
2018-07-03T08:09:30.930Z,17.26
2018-07-03T08:12:00.228Z,16.58
2018-07-03T08:14:29.354Z,18.43
2018-07-03T08:16:58.905Z,19.76
2018-07-03T08:19:28.154Z,17.94
2018-07-03T08:21:57.291Z,17.45
2018-07-03T08:24:26.736Z,17.12
2018-07-03T08:26:56.276Z,15.57
2018-07-03T08:29:26.224Z,15.33
2018-07-03T08:31:56.091Z,16.94
2018-07-03T08:34:26.624Z,16.84
2018-07-03T08:36:55.966Z,17.91
2018-07-03T08:39:25.095Z,18.15
2018-07-03T08:41:54.230Z,17.31
2018-07-03T08:44:23.311Z,15.44
2018-07-03T08:46:53.185Z,15.44
2018-07-03T08:49:22.511Z,14.98
2018-07-03T08:51:51.678Z,14.06
2018-07-03T08:54:20.690Z,13.01
2018-07-03T08:56:50.361Z,13.54
2018-07-03T08:59:19.436Z,13.18
2018-07-03T09:01:48.805Z,12.86
2018-07-03T09:04:18.363Z,13.99
2018-07-03T09:06:47.483Z,12.73
2018-07-03T09:09:16.615Z,13.00
2018-07-03T09:11:45.735Z,14.50
2018-07-03T09:14:14.846Z,15.22
2018-07-03T09:16:43.978Z,15.49
2018-07-03T09:19:13.088Z,15.29
2018-07-03T09:21:42.590Z,13.72
2018-07-03T09:24:11.699Z,14.54
2018-07-03T09:26:40.970Z,14.42
2018-07-03T09:29:10.207Z,14.74
2018-07-03T09:31:39.798Z,14.22
2018-07-03T09:34:08.950Z,13.01
2018-07-03T09:36:38.770Z,12.39
2018-07-03T09:39:10.965Z,12.87
2018-07-03T09:41:40.950Z,12.75
2018-07-03T09:44:10.847Z,13.38
2018-07-03T09:46:40.166Z,14.56
2018-07-03T09:49:10.102Z,13.08
2018-07-03T09:51:39.429Z,12.82
2018-07-03T09:54:09.078Z,12.45
2018-07-03T09:56:38.870Z,13.49
2018-07-03T09:59:08.190Z,14.57
2018-07-03T10:01:37.710Z,12.90
2018-07-03T10:04:07.030Z,13.81
2018-07-03T10:06:36.218Z,14.34
2018-07-03T10:09:08.841Z,14.46
2018-07-03T10:11:38.498Z,13.92
2018-07-03T10:14:09.045Z,14.39
2018-07-03T10:16:39.630Z,12.86
2018-07-03T10:19:09.215Z,13.02
2018-07-03T10:21:38.410Z,14.15
2018-07-03T10:24:08.103Z,16.95
2018-07-03T10:26:37.918Z,16.57
2018-07-03T10:29:08.299Z,14.84
2018-07-03T10:31:37.787Z,15.77
2018-07-03T10:34:06.640Z,14.26
2018-07-03T10:36:35.986Z,15.11
2018-07-03T10:39:10.407Z,15.96
2018-07-03T10:41:39.823Z,13.79
2018-07-03T10:44:08.937Z,12.56
2018-07-03T10:46:38.027Z,15.34
2018-07-03T10:49:07.222Z,17.34
2018-07-03T10:51:36.314Z,18.54
2018-07-03T10:54:05.431Z,19.43
2018-07-03T10:56:35.230Z,17.64
2018-07-03T10:59:04.390Z,16.50
2018-07-03T11:01:33.517Z,15.07
2018-07-03T11:04:03.434Z,14.41
2018-07-03T11:06:32.591Z,14.57
2018-07-03T11:09:01.690Z,15.52
2018-07-03T11:11:30.774Z,14.49
2018-07-03T11:14:00.166Z,14.99
2018-07-03T11:16:29.215Z,15.09
2018-07-03T11:18:58.274Z,15.26
2018-07-03T11:21:27.411Z,14.71
2018-07-03T11:23:56.915Z,15.47
2018-07-03T11:26:26.002Z,17.47
2018-07-03T11:28:56.171Z,19.28
2018-07-03T11:31:26.064Z,20.28
2018-07-03T11:33:55.954Z,21.75
2018-07-03T11:36:25.333Z,21.28
2018-07-03T11:38:54.962Z,21.09
2018-07-03T11:41:24.608Z,21.05
2018-07-03T11:43:54.431Z,22.49
2018-07-03T11:46:23.767Z,21.25
2018-07-03T11:48:53.718Z,19.67
2018-07-03T11:51:22.827Z,19.58
2018-07-03T11:53:51.934Z,18.70
2018-07-03T11:56:21.619Z,18.54
2018-07-03T11:58:50.724Z,20.37
2018-07-03T12:01:19.842Z,22.44
2018-07-03T12:03:48.974Z,24.06
2018-07-03T12:06:18.070Z,23.23
2018-07-03T12:08:47.177Z,23.99
2018-07-03T12:11:16.483Z,23.79
2018-07-03T12:13:46.387Z,26.51
2018-07-03T12:16:16.458Z,25.86
2018-07-03T12:18:50.774Z,24.64
2018-07-03T12:21:19.587Z,24.77
2018-07-03T12:23:49.210Z,24.69
2018-07-03T12:26:18.352Z,24.16
2018-07-03T12:28:47.485Z,24.68
2018-07-03T12:31:17.511Z,23.07
2018-07-03T12:33:46.998Z,21.17
2018-07-03T12:36:16.107Z,19.50
2018-07-03T12:38:45.414Z,18.05
2018-07-03T12:41:14.543Z,18.41
2018-07-03T12:43:43.770Z,19.93
2018-07-03T12:46:13.603Z,20.09
2018-07-03T12:48:43.546Z,21.53
2018-07-03T12:51:13.509Z,21.38
2018-07-03T12:53:43.370Z,20.63
2018-07-03T12:56:13.312Z,20.05
2018-07-03T12:58:43.187Z,17.85
2018-07-03T13:01:12.536Z,18.34
2018-07-03T13:03:41.646Z,17.52
2018-07-03T13:06:11.126Z,17.41
2018-07-03T13:08:41.194Z,16.70
2018-07-03T13:11:10.287Z,15.67
2018-07-03T13:13:39.382Z,17.60
2018-07-03T13:16:08.515Z,20.58
2018-07-03T13:18:37.602Z,20.93
2018-07-03T13:21:07.331Z,21.84
2018-07-03T13:23:36.466Z,21.33
2018-07-03T13:26:05.985Z,20.30
2018-07-03T13:28:35.110Z,16.95
2018-07-03T13:31:04.255Z,18.18
2018-07-03T13:33:33.376Z,19.88
2018-07-03T13:36:02.771Z,19.25
2018-07-03T13:38:31.950Z,17.75
2018-07-03T13:41:01.223Z,18.72
2018-07-03T13:43:30.840Z,22.78
2018-07-03T13:45:59.970Z,24.06
2018-07-03T13:48:29.125Z,21.65
2018-07-03T13:50:58.514Z,21.60
2018-07-03T13:53:28.082Z,20.29
2018-07-03T13:55:57.208Z,20.57
2018-07-03T13:58:26.558Z,19.75
2018-07-03T14:00:55.814Z,19.77
2018-07-03T14:03:25.282Z,19.56
2018-07-03T14:05:54.449Z,21.52
2018-07-03T14:08:23.531Z,19.97
2018-07-03T14:10:52.605Z,17.90
2018-07-03T14:13:21.775Z,15.74
2018-07-03T14:15:50.894Z,16.35
2018-07-03T14:18:24.952Z,16.16
2018-07-03T14:20:56.166Z,16.85
2018-07-03T14:23:25.535Z,19.93
2018-07-03T14:25:54.674Z,19.98
2018-07-03T14:28:24.066Z,16.98
2018-07-03T14:30:53.202Z,16.98
2018-07-03T14:33:22.518Z,17.28
2018-07-03T14:35:51.638Z,19.84
2018-07-03T14:38:20.900Z,20.62
2018-07-03T14:40:50.201Z,20.31
2018-07-03T14:43:20.039Z,21.64
2018-07-03T14:45:49.787Z,21.55
2018-07-03T14:48:19.415Z,23.89
2018-07-03T14:50:49.039Z,22.91
2018-07-03T14:53:18.930Z,23.34
2018-07-03T14:55:48.387Z,22.49
2018-07-03T14:58:17.175Z,21.51
2018-07-03T15:00:46.311Z,19.94
2018-07-03T15:03:15.530Z,21.09
2018-07-03T15:05:44.637Z,19.54
2018-07-03T15:08:13.247Z,17.57
2018-07-03T15:10:42.389Z,18.41
2018-07-03T15:13:11.550Z,18.25
2018-07-03T15:15:41.550Z,16.82
2018-07-03T15:18:13.197Z,18.24
2018-07-03T15:20:42.685Z,20.95
2018-07-03T15:23:12.048Z,19.80
2018-07-03T15:25:40.825Z,18.50
2018-07-03T15:28:10.330Z,19.11
2018-07-03T15:30:39.414Z,19.38
2018-07-03T15:33:08.578Z,18.33
2018-07-03T15:35:37.659Z,17.05
2018-07-03T15:38:07.676Z,19.03
2018-07-03T15:40:38.734Z,23.39
2018-07-03T15:43:08.380Z,19.88
2018-07-03T15:45:38.113Z,21.55
2018-07-03T15:48:07.215Z,20.33
2018-07-03T15:50:37.125Z,20.38
2018-07-03T15:53:06.258Z,19.99
2018-07-03T15:55:35.382Z,20.30
2018-07-03T15:58:04.527Z,22.21
2018-07-03T16:00:33.706Z,21.88
2018-07-03T16:03:19.847Z,21.38
2018-07-03T16:08:17.843Z,20.93
2018-07-03T16:10:46.938Z,24.57
2018-07-03T16:13:16.026Z,26.38
2018-07-03T16:15:45.546Z,25.98
2018-07-03T16:18:14.625Z,25.44
2018-07-03T16:20:43.718Z,25.04
2018-07-03T16:23:13.150Z,24.12
2018-07-03T16:25:42.359Z,22.33
2018-07-03T16:28:11.038Z,22.75
2018-07-03T16:30:40.314Z,23.22
2018-07-03T16:33:09.548Z,25.70
2018-07-03T16:35:38.675Z,26.81
2018-07-03T16:38:08.328Z,27.61
2018-07-03T16:40:37.458Z,27.61
2018-07-03T16:43:07.176Z,27.65
2018-07-03T16:45:36.710Z,27.86
2018-07-03T16:48:06.462Z,28.38
2018-07-03T16:50:36.458Z,27.63
2018-07-03T16:53:06.243Z,27.96
2018-07-03T16:55:36.291Z,28.21
2018-07-03T16:58:05.990Z,26.67
2018-07-03T17:00:35.566Z,26.70
2018-07-03T17:03:04.727Z,26.71
2018-07-03T17:05:33.685Z,26.37
2018-07-03T17:08:02.788Z,26.39
2018-07-03T17:10:31.875Z,26.00
2018-07-03T17:13:00.996Z,26.28
2018-07-03T17:15:30.087Z,26.83
2018-07-03T17:17:59.174Z,26.01
2018-07-03T17:20:28.295Z,25.92
2018-07-03T17:22:57.411Z,26.73
2018-07-03T17:25:26.494Z,25.66
2018-07-03T17:27:56.005Z,26.77
2018-07-03T17:30:25.105Z,26.22
2018-07-03T17:32:54.289Z,27.14
2018-07-03T17:35:23.427Z,27.24
2018-07-03T17:37:53.470Z,25.57
2018-07-03T17:40:39.650Z,25.66
2018-07-03T17:45:41.267Z,26.14
2018-07-03T17:48:11.638Z,27.64
2018-07-03T17:50:40.758Z,27.51
2018-07-03T17:53:10.045Z,27.31
2018-07-03T17:55:39.122Z,29.13
2018-07-03T17:58:08.419Z,27.92
2018-07-03T18:00:38.158Z,27.79
2018-07-03T18:03:07.254Z,28.57
2018-07-03T18:05:36.790Z,28.92
2018-07-03T18:08:06.943Z,29.15
2018-07-03T18:10:36.886Z,28.80
2018-07-03T18:13:06.318Z,30.45
2018-07-03T18:15:36.067Z,31.83
2018-07-03T18:18:05.954Z,32.58
2018-07-03T18:20:35.262Z,32.08
2018-07-03T18:23:04.962Z,32.36
2018-07-03T18:25:34.242Z,31.84
2018-07-03T18:28:03.706Z,31.88
2018-07-03T18:30:33.050Z,32.55
2018-07-03T18:33:02.936Z,32.43
2018-07-03T18:35:32.499Z,33.23
2018-07-03T18:38:01.922Z,34.49
2018-07-03T18:40:31.332Z,36.19
2018-07-03T18:43:00.960Z,36.75
2018-07-03T18:45:30.195Z,37.66
2018-07-03T18:48:00.534Z,37.96
2018-07-03T18:50:29.983Z,39.43
2018-07-03T18:52:59.882Z,40.33
2018-07-03T18:55:29.899Z,41.32
2018-07-03T18:57:59.700Z,42.98
2018-07-03T19:00:28.913Z,43.73
2018-07-03T19:02:59.122Z,45.13
2018-07-03T19:05:28.642Z,46.09
2018-07-03T19:07:58.607Z,47.54
2018-07-03T19:10:27.886Z,47.47
2018-07-03T19:12:57.949Z,48.14
2018-07-03T19:15:27.412Z,48.77
2018-07-03T19:17:57.778Z,49.84
2018-07-03T19:20:27.256Z,50.23
2018-07-03T19:22:57.197Z,50.42
2018-07-03T19:25:27.535Z,51.18
2018-07-03T19:27:56.964Z,51.78
2018-07-03T19:30:26.822Z,52.90
2018-07-03T19:32:55.946Z,52.70
2018-07-03T19:35:25.057Z,54.30
2018-07-03T19:37:54.955Z,53.69
2018-07-03T19:40:24.094Z,54.25
2018-07-03T19:43:27.990Z,54.43
2018-07-03T19:45:58.066Z,54.90
2018-07-03T19:48:27.410Z,55.33
2018-07-03T19:50:56.592Z,56.33
2018-07-03T19:53:25.739Z,56.86
2018-07-03T19:55:56.215Z,57.02
2018-07-03T19:58:25.322Z,57.54
2018-07-03T20:00:55.507Z,58.52
2018-07-03T20:03:24.683Z,57.97
2018-07-03T20:05:53.784Z,58.33
2018-07-03T20:08:22.987Z,57.96
2018-07-03T20:10:52.601Z,58.21
2018-07-03T20:13:22.507Z,59.11
2018-07-03T20:15:52.302Z,59.66
2018-07-03T20:18:21.872Z,59.73
2018-07-03T20:20:51.464Z,60.06
2018-07-03T20:23:21.342Z,60.10
2018-07-03T20:25:51.175Z,60.61
2018-07-03T20:28:21.194Z,61.85
2018-07-03T20:30:50.922Z,62.72
2018-07-03T20:33:20.227Z,63.14
2018-07-03T20:35:50.145Z,62.94
2018-07-03T20:38:19.469Z,64.34
2018-07-03T20:40:54.574Z,63.91
2018-07-03T20:43:24.565Z,64.70
2018-07-03T20:45:53.698Z,63.86
2018-07-03T20:48:24.919Z,64.97
2018-07-03T20:50:54.250Z,65.31
2018-07-03T20:53:23.487Z,65.69
2018-07-03T20:55:53.074Z,64.99
2018-07-03T20:58:23.064Z,65.37
2018-07-03T21:00:52.434Z,65.53
2018-07-03T21:03:21.582Z,65.13
2018-07-03T21:05:52.654Z,66.17
2018-07-03T21:08:21.565Z,66.11
2018-07-03T21:10:51.343Z,66.39
2018-07-03T21:13:21.184Z,66.29
2018-07-03T21:15:50.940Z,65.52
2018-07-03T21:18:20.287Z,65.22
2018-07-03T21:20:49.613Z,65.77
2018-07-03T21:23:18.963Z,64.84
2018-07-03T21:25:48.418Z,65.29
2018-07-03T21:28:17.850Z,65.04
2018-07-03T21:30:47.410Z,65.20
2018-07-03T21:33:17.594Z,65.51
2018-07-03T21:35:47.350Z,65.35
2018-07-03T21:38:17.818Z,65.35
2018-07-03T21:40:47.501Z,66.13
2018-07-03T21:43:16.591Z,65.67
2018-07-03T21:45:45.740Z,66.15
2018-07-03T21:48:14.875Z,66.57
2018-07-03T21:50:44.032Z,66.82
2018-07-03T21:53:13.210Z,67.80
2018-07-03T21:55:42.388Z,69.32
2018-07-03T21:58:11.534Z,69.60
2018-07-03T22:00:41.731Z,69.44
2018-07-03T22:03:11.895Z,69.62
2018-07-03T22:05:41.721Z,69.58
2018-07-03T22:08:10.827Z,69.71
2018-07-03T22:10:39.930Z,70.27
2018-07-03T22:13:09.094Z,70.71
2018-07-03T22:15:38.138Z,71.22
2018-07-03T22:18:07.546Z,71.01
2018-07-03T22:20:36.854Z,71.87
2018-07-03T22:23:06.309Z,73.01
2018-07-03T22:25:35.747Z,72.98
2018-07-03T22:28:05.130Z,73.10
2018-07-03T22:30:34.442Z,74.04
2018-07-03T22:33:04.049Z,74.51
2018-07-03T22:35:33.763Z,74.71
2018-07-03T22:38:03.606Z,74.96
2018-07-03T22:40:32.780Z,75.49
2018-07-03T22:43:01.899Z,75.62
2018-07-03T22:45:31.133Z,76.12
2018-07-03T22:48:00.227Z,75.74
2018-07-03T22:50:29.315Z,75.63
2018-07-03T22:52:58.982Z,76.37
2018-07-03T22:55:28.194Z,76.13
2018-07-03T22:57:57.362Z,76.69
2018-07-03T23:00:26.514Z,77.28
2018-07-03T23:02:55.602Z,76.91
2018-07-03T23:05:24.763Z,77.26
2018-07-03T23:07:54.793Z,76.31
2018-07-03T23:10:23.883Z,77.77
2018-07-03T23:12:53.803Z,78.39
2018-07-03T23:15:23.056Z,78.72
2018-07-03T23:17:51.966Z,78.57
2018-07-03T23:20:21.075Z,79.07
2018-07-03T23:22:50.172Z,79.03
2018-07-03T23:25:19.270Z,78.19
2018-07-03T23:27:48.347Z,79.30
2018-07-03T23:30:17.442Z,79.12
2018-07-03T23:32:46.610Z,79.43
2018-07-03T23:35:15.670Z,78.80
2018-07-03T23:37:45.618Z,78.18
2018-07-03T23:40:14.722Z,77.66
2018-07-03T23:42:43.821Z,77.37
2018-07-03T23:45:12.943Z,77.11
2018-07-03T23:47:59.582Z,77.67
2018-07-03T23:50:45.645Z,77.65
2018-07-03T23:53:31.686Z,77.54
2018-07-03T23:56:17.647Z,75.42
2018-07-03T23:59:04.330Z,74.73
